Main page
METAR-TAF:

METAR-TAF

Airports :

Kuwait City, Kuwait

Kuwait International Airport

latitude: 29-13N, longitude: 047-59E, elevation: 55 m

Current weather observation

The report was made 27 minutes ago, at 20:00 UTC
Wind 3 kt from the West
Temperature 10°C
Humidity 43%
Pressure 1025 hPa
Visibility 10 km or more
no clouds below 1500 m and no cumulonimbus

METAR: OKBK 182000Z 27003KT CAVOK 10/M02 Q1025 NOSIG

Time: 23:27 (20:27 UTC)

Forecast

The report was made 3 hours and 42 minutes ago, at 16:45 UTC
Forecast valid from 18 at 18 UTC to 19 at 24 UTC
Wind 10 kt from the North/Northwest
Visibility: 7000 m
Clear sky
Temporary
from 18 at 18 UTC to 19 at 04 UTC
Wind 3 kt from variable directions

TAF: OKBK 181645Z 1818/1924 33010KT 7000 SKC TEMPO 1818/1904 VRB03KT

Weather observations and forecasts of more than 4000 airports (METAR and TAF reports).

The available stations are represented by yellow and red dots on the map.

Hover mouse over dot to see the name of the station.

Then click to see weather observations and forecasts.

To change the map : click on the green buttons with a black cross to zoom in, on the green button with a dash to zoom out, or on the green arrows for adjacent maps.


METAR-TAF: